sensor_id;sensor_type;location;lat;lon;timestamp;pressure;altitude;pressure_sealevel;temperature;humidity
5703;BME280;2876;51.738;10.050;2023-08-20T03:20:55;99825.25;;;21.93;100.00
5703;BME280;2876;51.738;10.050;2023-08-20T03:26:57;99808.88;;;21.93;100.00
5703;BME280;2876;51.738;10.050;2023-08-20T03:32:59;99807.59;;;22.06;100.00
5703;BME280;2876;51.738;10.050;2023-08-20T03:39:02;99813.59;;;22.03;100.00
5703;BME280;2876;51.738;10.050;2023-08-20T03:45:05;99817.72;;;22.06;100.00
5703;BME280;2876;51.738;10.050;2023-08-20T03:51:07;99824.28;;;22.10;100.00
5703;BME280;2876;51.738;10.050;2023-08-20T03:57:09;99832.00;;;22.13;100.00
5703;BME280;2876;51.738;10.050;2023-08-20T04:03:11;99843.38;;;22.04;100.00
5703;BME280;2876;51.738;10.050;2023-08-20T04:09:13;99846.91;;;22.00;100.00
5703;BME280;2876;51.738;10.050;2023-08-20T04:15:15;99845.81;;;22.01;100.00
5703;BME280;2876;51.738;10.050;2023-08-20T04:21:17;99846.56;;;21.91;100.00
5703;BME280;2876;51.738;10.050;2023-08-20T04:27:19;99861.25;;;22.12;100.00
5703;BME280;2876;51.738;10.050;2023-08-20T04:33:21;99867.72;;;22.06;100.00
5703;BME280;2876;51.738;10.050;2023-08-20T04:39:23;99870.34;;;22.23;100.00
5703;BME280;2876;51.738;10.050;2023-08-20T04:45:26;99885.16;;;22.00;100.00
5703;BME280;2876;51.738;10.050;2023-08-20T04:51:28;99886.41;;;22.19;100.00
5703;BME280;2876;51.738;10.050;2023-08-20T04:57:30;99898.19;;;22.20;100.00
5703;BME280;2876;51.738;10.050;2023-08-20T05:03:31;99904.31;;;22.05;100.00
5703;BME280;2876;51.738;10.050;2023-08-20T05:09:34;99896.09;;;22.00;100.00
5703;BME280;2876;51.738;10.050;2023-08-20T05:15:36;99891.63;;;22.21;100.00
5703;BME280;2876;51.738;10.050;2023-08-20T05:21:38;99890.91;;;22.31;100.00
5703;BME280;2876;51.738;10.050;2023-08-20T05:27:40;99892.06;;;22.45;100.00
5703;BME280;2876;51.738;10.050;2023-08-20T05:33:42;99908.94;;;22.79;100.00
5703;BME280;2876;51.738;10.050;2023-08-20T05:39:44;99920.19;;;22.83;100.00
5703;BME280;2876;51.738;10.050;2023-08-20T05:45:46;99925.00;;;22.65;100.00
5703;BME280;2876;51.738;10.050;2023-08-20T05:51:48;99905.84;;;22.65;100.00
5703;BME280;2876;51.738;10.050;2023-08-20T05:57:50;99918.84;;;22.43;100.00
5703;BME280;2876;51.738;10.050;2023-08-20T06:03:52;99919.97;;;22.47;100.00
5703;BME280;2876;51.738;10.050;2023-08-20T06:09:54;99941.34;;;22.55;100.00
5703;BME280;2876;51.738;10.050;2023-08-20T06:15:56;99941.28;;;22.45;100.00
5703;BME280;2876;51.738;10.050;2023-08-20T06:21:58;99944.13;;;22.60;100.00
5703;BME280;2876;51.738;10.050;2023-08-20T06:28:00;99943.34;;;22.70;99.87
5703;BME280;2876;51.738;10.050;2023-08-20T06:34:02;99941.91;;;22.94;99.72
5703;BME280;2876;51.738;10.050;2023-08-20T06:40:06;99937.94;;;23.27;97.53
5703;BME280;2876;51.738;10.050;2023-08-20T06:46:08;99938.75;;;23.28;97.21
5703;BME280;2876;51.738;10.050;2023-08-20T06:52:11;99944.97;;;24.17;91.60
5703;BME280;2876;51.738;10.050;2023-08-20T06:58:13;99942.59;;;25.80;85.04
5703;BME280;2876;51.738;10.050;2023-08-20T07:04:15;99935.94;;;26.55;79.47
5703;BME280;2876;51.738;10.050;2023-08-20T07:10:17;99937.66;;;26.75;79.05
5703;BME280;2876;51.738;10.050;2023-08-20T07:16:19;99944.72;;;26.62;79.02
5703;BME280;2876;51.738;10.050;2023-08-20T07:22:21;99936.81;;;27.03;76.03
5703;BME280;2876;51.738;10.050;2023-08-20T07:28:23;99931.81;;;27.05;76.40
5703;BME280;2876;51.738;10.050;2023-08-20T07:34:51;99921.09;;;27.04;77.05
5703;BME280;2876;51.738;10.050;2023-08-20T07:40:53;99905.53;;;27.56;73.73
5703;BME280;2876;51.738;10.050;2023-08-20T07:46:55;99904.06;;;27.45;73.64
5703;BME280;2876;51.738;10.050;2023-08-20T07:52:57;99916.50;;;27.99;72.68
5703;BME280;2876;51.738;10.050;2023-08-20T07:58:59;99919.13;;;28.23;68.97
5703;BME280;2876;51.738;10.050;2023-08-20T08:05:01;99930.72;;;28.58;70.89
5703;BME280;2876;51.738;10.050;2023-08-20T08:11:03;99932.38;;;28.86;67.67
5703;BME280;2876;51.738;10.050;2023-08-20T08:17:05;99931.94;;;28.79;69.01
5703;BME280;2876;51.738;10.050;2023-08-20T08:23:07;99945.03;;;29.42;68.02
5703;BME280;2876;51.738;10.050;2023-08-20T08:29:09;99941.28;;;29.24;67.68
5703;BME280;2876;51.738;10.050;2023-08-20T08:35:11;99938.84;;;30.31;61.82
5703;BME280;2876;51.738;10.050;2023-08-20T08:41:13;99940.44;;;30.55;60.26
5703;BME280;2876;51.738;10.050;2023-08-20T08:47:18;99940.94;;;31.28;58.42
5703;BME280;2876;51.738;10.050;2023-08-20T08:53:20;99948.41;;;30.79;59.16
5703;BME280;2876;51.738;10.050;2023-08-20T08:59:23;99936.81;;;30.23;60.65
5703;BME280;2876;51.738;10.050;2023-08-20T09:05:25;99944.88;;;31.36;59.17
5703;BME280;2876;51.738;10.050;2023-08-20T09:11:35;99938.41;;;31.83;57.13
5703;BME280;2876;51.738;10.050;2023-08-20T09:17:37;99933.72;;;31.18;57.53
5703;BME280;2876;51.738;10.050;2023-08-20T09:23:40;99935.72;;;30.55;59.00
5703;BME280;2876;51.738;10.050;2023-08-20T09:29:50;99927.81;;;31.11;56.86
5703;BME280;2876;51.738;10.050;2023-08-20T09:35:53;99928.59;;;31.77;56.86
5703;BME280;2876;51.738;10.050;2023-08-20T09:41:59;99930.59;;;32.76;55.39
5703;BME280;2876;51.738;10.050;2023-08-20T09:48:05;99915.44;;;32.56;54.07
5703;BME280;2876;51.738;10.050;2023-08-20T09:54:21;99918.13;;;31.40;58.11
5703;BME280;2876;51.738;10.050;2023-08-20T10:00:25;99916.34;;;31.78;57.46
5703;BME280;2876;51.738;10.050;2023-08-20T10:06:28;99920.34;;;33.56;51.42
5703;BME280;2876;51.738;10.050;2023-08-20T10:12:31;99908.50;;;34.92;48.52
5703;BME280;2876;51.738;10.050;2023-08-20T10:18:37;99917.00;;;34.26;46.72
5703;BME280;2876;51.738;10.050;2023-08-20T10:24:49;99909.84;;;33.62;50.32
5703;BME280;2876;51.738;10.050;2023-08-20T10:31:12;99919.09;;;35.11;46.23
5703;BME280;2876;51.738;10.050;2023-08-20T10:37:15;99916.75;;;36.62;42.02
5703;BME280;2876;51.738;10.050;2023-08-20T10:43:30;99908.91;;;35.68;43.55
5703;BME280;2876;51.738;10.050;2023-08-20T10:49:33;99909.25;;;36.50;41.59
5703;BME280;2876;51.738;10.050;2023-08-20T10:55:35;99912.16;;;36.54;40.88
5703;BME280;2876;51.738;10.050;2023-08-20T11:01:37;99905.84;;;36.73;40.89
5703;BME280;2876;51.738;10.050;2023-08-20T11:07:40;99913.06;;;37.56;39.33
5703;BME280;2876;51.738;10.050;2023-08-20T11:13:42;99908.38;;;38.42;35.74
5703;BME280;2876;51.738;10.050;2023-08-20T11:19:44;99906.03;;;39.43;34.64
5703;BME280;2876;51.738;10.050;2023-08-20T11:26:03;99910.75;;;40.32;33.44
5703;BME280;2876;51.738;10.050;2023-08-20T11:32:05;99919.06;;;41.03;32.23
5703;BME280;2876;51.738;10.050;2023-08-20T11:38:09;99914.53;;;42.84;29.54
5703;BME280;2876;51.738;10.050;2023-08-20T11:44:19;99907.22;;;42.44;30.31
5703;BME280;2876;51.738;10.050;2023-08-20T11:50:23;99906.44;;;42.43;28.95
5703;BME280;2876;51.738;10.050;2023-08-20T11:56:27;99905.53;;;43.57;30.07
5703;BME280;2876;51.738;10.050;2023-08-20T12:02:29;99908.41;;;43.28;29.18
5703;BME280;2876;51.738;10.050;2023-08-20T12:08:41;99905.19;;;41.36;32.81
5703;BME280;2876;51.738;10.050;2023-08-20T12:14:43;99893.84;;;41.25;32.28
5703;BME280;2876;51.738;10.050;2023-08-20T12:20:45;99891.91;;;43.09;30.96
5703;BME280;2876;51.738;10.050;2023-08-20T12:26:48;99889.09;;;42.34;31.13
5703;BME280;2876;51.738;10.050;2023-08-20T12:32:50;99882.38;;;39.17;35.50
5703;BME280;2876;51.738;10.050;2023-08-20T12:38:52;99873.66;;;39.52;34.98
5703;BME280;2876;51.738;10.050;2023-08-20T12:44:54;99866.81;;;38.05;37.74
5703;BME280;2876;51.738;10.050;2023-08-20T12:50:56;99855.69;;;36.80;40.68
5703;BME280;2876;51.738;10.050;2023-08-20T12:56:58;99862.88;;;36.81;39.46
5703;BME280;2876;51.738;10.050;2023-08-20T13:03:01;99863.00;;;38.82;36.85
5703;BME280;2876;51.738;10.050;2023-08-20T13:09:03;99858.72;;;37.80;38.90
5703;BME280;2876;51.738;10.050;2023-08-20T13:15:06;99856.22;;;36.70;41.71
5703;BME280;2876;51.738;10.050;2023-08-20T13:21:08;99867.16;;;35.99;42.03
5703;BME280;2876;51.738;10.050;2023-08-20T13:27:11;99861.81;;;37.75;38.94
5703;BME280;2876;51.738;10.050;2023-08-20T13:33:16;99869.00;;;37.38;38.55
5703;BME280;2876;51.738;10.050;2023-08-20T13:39:18;99866.97;;;37.93;37.21
5703;BME280;2876;51.738;10.050;2023-08-20T13:45:20;99863.06;;;37.58;40.18
5703;BME280;2876;51.738;10.050;2023-08-20T13:51:22;99848.97;;;36.37;39.72
5703;BME280;2876;51.738;10.050;2023-08-20T13:57:24;99843.78;;;36.67;40.95
5703;BME280;2876;51.738;10.050;2023-08-20T14:03:26;99852.75;;;37.82;37.25
5703;BME280;2876;51.738;10.050;2023-08-20T14:09:28;99845.69;;;38.76;36.41
5703;BME280;2876;51.738;10.050;2023-08-20T14:15:30;99848.13;;;40.87;33.40
5703;BME280;2876;51.738;10.050;2023-08-20T14:21:32;99854.81;;;41.23;32.51
5703;BME280;2876;51.738;10.050;2023-08-20T14:27:34;99844.00;;;39.89;34.26
5703;BME280;2876;51.738;10.050;2023-08-20T14:33:36;99848.72;;;41.14;32.73
5703;BME280;2876;51.738;10.050;2023-08-20T14:39:38;99833.91;;;40.66;33.90
5703;BME280;2876;51.738;10.050;2023-08-20T14:45:40;99843.66;;;41.41;32.04
5703;BME280;2876;51.738;10.050;2023-08-20T14:51:42;99832.69;;;40.63;33.61
5703;BME280;2876;51.738;10.050;2023-08-20T14:57:44;99825.81;;;37.97;37.63
5703;BME280;2876;51.738;10.050;2023-08-20T15:03:53;99819.31;;;36.64;40.34
5703;BME280;2876;51.738;10.050;2023-08-20T15:09:55;99820.22;;;39.19;35.80
5703;BME280;2876;51.738;10.050;2023-08-20T15:15:57;99831.53;;;41.34;31.98
5703;BME280;2876;51.738;10.050;2023-08-20T15:21:59;99831.81;;;41.07;32.01
5703;BME280;2876;51.738;10.050;2023-08-20T15:28:02;99825.31;;;41.87;31.08
5703;BME280;2876;51.738;10.050;2023-08-20T15:34:05;99825.31;;;43.15;29.31
5703;BME280;2876;51.738;10.050;2023-08-20T15:40:08;99819.75;;;42.72;29.93
5703;BME280;2876;51.738;10.050;2023-08-20T15:46:13;99803.56;;;39.33;35.15
5703;BME280;2876;51.738;10.050;2023-08-20T15:52:15;99795.28;;;41.25;33.55
5703;BME280;2876;51.738;10.050;2023-08-20T15:58:19;99792.69;;;42.00;30.72
5703;BME280;2876;51.738;10.050;2023-08-20T16:04:21;99795.56;;;42.36;31.04
5703;BME280;2876;51.738;10.050;2023-08-20T16:10:24;99782.31;;;43.67;28.99
5703;BME280;2876;51.738;10.050;2023-08-20T16:16:26;99788.84;;;43.42;28.48
5703;BME280;2876;51.738;10.050;2023-08-20T16:22:30;99793.44;;;41.72;31.51
5703;BME280;2876;51.738;10.050;2023-08-20T16:28:32;99786.84;;;37.69;37.43
5703;BME280;2876;51.738;10.050;2023-08-20T16:34:34;99791.22;;;35.25;43.30
5703;BME280;2876;51.738;10.050;2023-08-20T16:40:36;99789.72;;;34.05;46.58
5703;BME280;2876;51.738;10.050;2023-08-20T16:46:38;99793.19;;;32.86;50.32
5703;BME280;2876;51.738;10.050;2023-08-20T16:52:40;99793.44;;;33.01;51.71
5703;BME280;2876;51.738;10.050;2023-08-20T16:58:42;99801.53;;;33.36;50.15
5703;BME280;2876;51.738;10.050;2023-08-20T17:04:44;99792.44;;;33.27;51.85
5703;BME280;2876;51.738;10.050;2023-08-20T17:10:46;99801.03;;;34.46;47.17
5703;BME280;2876;51.738;10.050;2023-08-20T17:16:48;99801.25;;;35.02;43.31
5703;BME280;2876;51.738;10.050;2023-08-20T17:22:50;99802.44;;;35.01;43.82
5703;BME280;2876;51.738;10.050;2023-08-20T17:28:52;99806.19;;;33.23;48.15
5703;BME280;2876;51.738;10.050;2023-08-20T17:34:54;99799.16;;;31.90;53.33
5703;BME280;2876;51.738;10.050;2023-08-20T17:40:56;99793.03;;;30.58;55.35
5703;BME280;2876;51.738;10.050;2023-08-20T17:46:58;99797.22;;;29.85;59.07
5703;BME280;2876;51.738;10.050;2023-08-20T17:53:01;99801.78;;;29.22;63.33
5703;BME280;2876;51.738;10.050;2023-08-20T17:59:03;99802.25;;;28.60;62.61
5703;BME280;2876;51.738;10.050;2023-08-20T18:05:05;99804.47;;;28.17;67.17
5703;BME280;2876;51.738;10.050;2023-08-20T18:11:10;99802.78;;;28.35;66.75
5703;BME280;2876;51.738;10.050;2023-08-20T18:17:13;99806.41;;;28.16;67.39
5703;BME280;2876;51.738;10.050;2023-08-20T18:23:15;99808.47;;;27.59;68.51
5703;BME280;2876;51.738;10.050;2023-08-20T18:29:18;99814.97;;;26.69;69.12
5703;BME280;2876;51.738;10.050;2023-08-20T18:35:20;99814.47;;;26.38;71.39
5703;BME280;2876;51.738;10.050;2023-08-20T18:41:22;99820.16;;;26.22;72.26
5703;BME280;2876;51.738;10.050;2023-08-20T18:47:24;99817.78;;;25.82;73.40
5703;BME280;2876;51.738;10.050;2023-08-20T18:53:26;99821.53;;;25.56;73.59
5703;BME280;2876;51.738;10.050;2023-08-20T18:59:29;99839.13;;;25.55;74.21
5703;BME280;2876;51.738;10.050;2023-08-20T19:05:31;99847.56;;;25.30;76.13
5703;BME280;2876;51.738;10.050;2023-08-20T19:11:33;99867.34;;;25.27;77.07
5703;BME280;2876;51.738;10.050;2023-08-20T19:17:35;99864.50;;;24.83;78.40
5703;BME280;2876;51.738;10.050;2023-08-20T19:23:37;99860.75;;;24.58;79.80
5703;BME280;2876;51.738;10.050;2023-08-20T19:29:39;99881.38;;;24.40;80.46
5703;BME280;2876;51.738;10.050;2023-08-20T19:35:43;99880.53;;;24.24;81.68
5703;BME280;2876;51.738;10.050;2023-08-20T19:41:46;99881.91;;;24.37;80.99
5703;BME280;2876;51.738;10.050;2023-08-20T19:47:48;99886.59;;;23.96;82.82
5703;BME280;2876;51.738;10.050;2023-08-20T19:53:50;99902.22;;;23.85;83.71
5703;BME280;2876;51.738;10.050;2023-08-20T19:59:52;99909.28;;;23.71;85.04
5703;BME280;2876;51.738;10.050;2023-08-20T20:05:54;99915.06;;;23.69;85.30
5703;BME280;2876;51.738;10.050;2023-08-20T20:11:56;99906.84;;;23.74;85.22
5703;BME280;2876;51.738;10.050;2023-08-20T20:17:58;99927.13;;;23.89;84.90
5703;BME280;2876;51.738;10.050;2023-08-20T20:24:00;99923.56;;;23.93;86.09
5703;BME280;2876;51.738;10.050;2023-08-20T20:30:06;99934.00;;;23.91;85.80
5703;BME280;2876;51.738;10.050;2023-08-20T20:36:09;99921.59;;;23.63;87.30
5703;BME280;2876;51.738;10.050;2023-08-20T20:42:11;99929.22;;;23.51;87.39
5703;BME280;2876;51.738;10.050;2023-08-20T20:48:13;99934.91;;;23.29;88.48
5703;BME280;2876;51.738;10.050;2023-08-20T20:54:15;99932.47;;;23.38;88.19
5703;BME280;2876;51.738;10.050;2023-08-20T21:00:17;99937.72;;;23.49;87.45
5703;BME280;2876;51.738;10.050;2023-08-20T21:06:19;99947.88;;;23.49;87.11
